sensor_id;sensor_type;location;lat;lon;timestamp;P1;durP1;ratioP1;P2;durP2;ratioP2
2698;SDS011;1359;51.798;12.174;2022-07-29T00:00:34;4.20;;;2.90;;
2698;SDS011;1359;51.798;12.174;2022-07-29T00:03:00;3.13;;;2.60;;
2698;SDS011;1359;51.798;12.174;2022-07-29T00:05:25;3.33;;;2.57;;
2698;SDS011;1359;51.798;12.174;2022-07-29T00:07:50;3.83;;;2.50;;
2698;SDS011;1359;51.798;12.174;2022-07-29T00:10:15;3.53;;;3.03;;
2698;SDS011;1359;51.798;12.174;2022-07-29T00:12:40;3.20;;;2.83;;
2698;SDS011;1359;51.798;12.174;2022-07-29T00:15:05;3.28;;;2.38;;
2698;SDS011;1359;51.798;12.174;2022-07-29T00:17:31;3.00;;;2.40;;
2698;SDS011;1359;51.798;12.174;2022-07-29T00:19:58;3.27;;;3.00;;
2698;SDS011;1359;51.798;12.174;2022-07-29T00:22:23;5.63;;;2.67;;
2698;SDS011;1359;51.798;12.174;2022-07-29T00:24:49;3.47;;;3.10;;
2698;SDS011;1359;51.798;12.174;2022-07-29T00:27:14;4.33;;;2.20;;
2698;SDS011;1359;51.798;12.174;2022-07-29T00:29:39;3.60;;;2.90;;
2698;SDS011;1359;51.798;12.174;2022-07-29T00:32:04;3.10;;;2.58;;
2698;SDS011;1359;51.798;12.174;2022-07-29T00:34:29;5.33;;;2.60;;
2698;SDS011;1359;51.798;12.174;2022-07-29T00:37:13;2.90;;;2.60;;
2698;SDS011;1359;51.798;12.174;2022-07-29T00:39:38;3.30;;;2.80;;
2698;SDS011;1359;51.798;12.174;2022-07-29T00:42:04;2.27;;;2.07;;
2698;SDS011;1359;51.798;12.174;2022-07-29T00:44:30;4.00;;;2.80;;
2698;SDS011;1359;51.798;12.174;2022-07-29T00:46:55;4.80;;;2.70;;
2698;SDS011;1359;51.798;12.174;2022-07-29T00:49:20;2.38;;;2.17;;
2698;SDS011;1359;51.798;12.174;2022-07-29T00:51:45;3.47;;;3.17;;
2698;SDS011;1359;51.798;12.174;2022-07-29T00:54:10;6.80;;;2.63;;
2698;SDS011;1359;51.798;12.174;2022-07-29T00:56:37;2.97;;;2.50;;
2698;SDS011;1359;51.798;12.174;2022-07-29T00:59:02;6.45;;;4.57;;
2698;SDS011;1359;51.798;12.174;2022-07-29T01:01:27;4.07;;;3.03;;
2698;SDS011;1359;51.798;12.174;2022-07-29T01:03:53;7.90;;;2.80;;
2698;SDS011;1359;51.798;12.174;2022-07-29T01:06:18;4.50;;;2.87;;
2698;SDS011;1359;51.798;12.174;2022-07-29T01:08:44;6.40;;;2.53;;
2698;SDS011;1359;51.798;12.174;2022-07-29T01:11:09;2.77;;;2.53;;
2698;SDS011;1359;51.798;12.174;2022-07-29T01:13:34;4.77;;;2.63;;
2698;SDS011;1359;51.798;12.174;2022-07-29T01:16:04;2.47;;;2.10;;
2698;SDS011;1359;51.798;12.174;2022-07-29T01:18:33;3.73;;;3.37;;
2698;SDS011;1359;51.798;12.174;2022-07-29T01:26:15;4.33;;;2.63;;
2698;SDS011;1359;51.798;12.174;2022-07-29T01:28:47;2.43;;;2.23;;
2698;SDS011;1359;51.798;12.174;2022-07-29T01:31:14;4.27;;;3.00;;
2698;SDS011;1359;51.798;12.174;2022-07-29T01:33:41;3.53;;;2.57;;
2698;SDS011;1359;51.798;12.174;2022-07-29T01:36:14;3.47;;;3.13;;
2698;SDS011;1359;51.798;12.174;2022-07-29T01:38:41;4.60;;;2.70;;
2698;SDS011;1359;51.798;12.174;2022-07-29T01:44:11;6.30;;;3.27;;
2698;SDS011;1359;51.798;12.174;2022-07-29T01:46:38;3.80;;;2.07;;
2698;SDS011;1359;51.798;12.174;2022-07-29T01:49:11;5.07;;;3.67;;
2698;SDS011;1359;51.798;12.174;2022-07-29T01:51:43;3.73;;;2.93;;
2698;SDS011;1359;51.798;12.174;2022-07-29T01:54:14;7.37;;;3.20;;
2698;SDS011;1359;51.798;12.174;2022-07-29T01:56:41;3.57;;;3.07;;
2698;SDS011;1359;51.798;12.174;2022-07-29T01:59:07;5.23;;;3.10;;
2698;SDS011;1359;51.798;12.174;2022-07-29T02:01:34;4.33;;;2.53;;
2698;SDS011;1359;51.798;12.174;2022-07-29T02:04:01;3.60;;;2.93;;
2698;SDS011;1359;51.798;12.174;2022-07-29T02:06:27;8.57;;;3.30;;
2698;SDS011;1359;51.798;12.174;2022-07-29T02:08:54;5.37;;;3.27;;
2698;SDS011;1359;51.798;12.174;2022-07-29T02:11:21;5.53;;;2.77;;
2698;SDS011;1359;51.798;12.174;2022-07-29T02:13:46;4.97;;;3.40;;
2698;SDS011;1359;51.798;12.174;2022-07-29T02:16:12;3.70;;;3.20;;
2698;SDS011;1359;51.798;12.174;2022-07-29T02:18:38;3.60;;;3.30;;
2698;SDS011;1359;51.798;12.174;2022-07-29T02:21:04;4.90;;;3.20;;
2698;SDS011;1359;51.798;12.174;2022-07-29T02:23:29;3.43;;;3.07;;
2698;SDS011;1359;51.798;12.174;2022-07-29T02:25:56;5.50;;;3.20;;
2698;SDS011;1359;51.798;12.174;2022-07-29T02:28:22;2.83;;;2.53;;
2698;SDS011;1359;51.798;12.174;2022-07-29T02:30:47;4.33;;;3.43;;
2698;SDS011;1359;51.798;12.174;2022-07-29T02:33:14;3.03;;;2.83;;
2698;SDS011;1359;51.798;12.174;2022-07-29T02:35:40;8.30;;;3.37;;
2698;SDS011;1359;51.798;12.174;2022-07-29T02:38:06;10.37;;;3.47;;
2698;SDS011;1359;51.798;12.174;2022-07-29T02:40:51;2.93;;;2.57;;
2698;SDS011;1359;51.798;12.174;2022-07-29T02:43:16;3.87;;;3.07;;
2698;SDS011;1359;51.798;12.174;2022-07-29T02:45:42;5.57;;;3.63;;
2698;SDS011;1359;51.798;12.174;2022-07-29T02:48:10;5.67;;;3.53;;
2698;SDS011;1359;51.798;12.174;2022-07-29T02:50:42;4.10;;;3.30;;
2698;SDS011;1359;51.798;12.174;2022-07-29T02:53:13;7.40;;;3.37;;
2698;SDS011;1359;51.798;12.174;2022-07-29T02:55:40;4.87;;;3.60;;
2698;SDS011;1359;51.798;12.174;2022-07-29T02:58:13;5.67;;;3.53;;
2698;SDS011;1359;51.798;12.174;2022-07-29T03:00:39;6.23;;;3.73;;
2698;SDS011;1359;51.798;12.174;2022-07-29T03:03:07;4.90;;;3.60;;
2698;SDS011;1359;51.798;12.174;2022-07-29T03:05:33;5.67;;;3.60;;
2698;SDS011;1359;51.798;12.174;2022-07-29T03:08:04;3.80;;;3.20;;
2698;SDS011;1359;51.798;12.174;2022-07-29T03:10:29;6.20;;;2.97;;
2698;SDS011;1359;51.798;12.174;2022-07-29T03:12:55;5.87;;;3.07;;
2698;SDS011;1359;51.798;12.174;2022-07-29T03:15:21;3.67;;;3.37;;
2698;SDS011;1359;51.798;12.174;2022-07-29T03:17:46;5.00;;;3.00;;
2698;SDS011;1359;51.798;12.174;2022-07-29T03:20:12;4.63;;;2.97;;
2698;SDS011;1359;51.798;12.174;2022-07-29T03:22:41;5.20;;;3.30;;
2698;SDS011;1359;51.798;12.174;2022-07-29T03:25:08;3.60;;;3.30;;
2698;SDS011;1359;51.798;12.174;2022-07-29T03:27:34;4.00;;;3.20;;
2698;SDS011;1359;51.798;12.174;2022-07-29T03:29:59;11.27;;;4.00;;
2698;SDS011;1359;51.798;12.174;2022-07-29T03:32:24;3.70;;;3.40;;
2698;SDS011;1359;51.798;12.174;2022-07-29T03:34:49;4.22;;;3.78;;
2698;SDS011;1359;51.798;12.174;2022-07-29T03:37:14;3.47;;;3.17;;
2698;SDS011;1359;51.798;12.174;2022-07-29T03:39:40;9.75;;;3.65;;
2698;SDS011;1359;51.798;12.174;2022-07-29T03:42:06;6.23;;;3.33;;
2698;SDS011;1359;51.798;12.174;2022-07-29T03:44:32;8.23;;;3.10;;
2698;SDS011;1359;51.798;12.174;2022-07-29T03:46:58;3.30;;;3.00;;
2698;SDS011;1359;51.798;12.174;2022-07-29T03:49:24;3.47;;;3.07;;
2698;SDS011;1359;51.798;12.174;2022-07-29T03:51:51;4.30;;;3.40;;
2698;SDS011;1359;51.798;12.174;2022-07-29T03:54:16;4.43;;;3.57;;
2698;SDS011;1359;51.798;12.174;2022-07-29T03:56:42;4.35;;;3.53;;
2698;SDS011;1359;51.798;12.174;2022-07-29T03:59:07;4.13;;;3.00;;
2698;SDS011;1359;51.798;12.174;2022-07-29T04:01:33;5.83;;;3.70;;
2698;SDS011;1359;51.798;12.174;2022-07-29T04:03:59;3.80;;;3.50;;
2698;SDS011;1359;51.798;12.174;2022-07-29T04:06:24;3.40;;;3.10;;
2698;SDS011;1359;51.798;12.174;2022-07-29T04:08:50;5.30;;;3.47;;
2698;SDS011;1359;51.798;12.174;2022-07-29T04:11:15;3.40;;;3.10;;
2698;SDS011;1359;51.798;12.174;2022-07-29T04:13:41;5.90;;;5.35;;
2698;SDS011;1359;51.798;12.174;2022-07-29T04:16:06;8.93;;;3.60;;
2698;SDS011;1359;51.798;12.174;2022-07-29T04:18:31;8.15;;;3.85;;
2698;SDS011;1359;51.798;12.174;2022-07-29T04:20:56;4.00;;;3.70;;
2698;SDS011;1359;51.798;12.174;2022-07-29T04:23:23;9.77;;;3.10;;
2698;SDS011;1359;51.798;12.174;2022-07-29T04:25:49;3.92;;;3.53;;
2698;SDS011;1359;51.798;12.174;2022-07-29T04:28:14;5.43;;;3.77;;
2698;SDS011;1359;51.798;12.174;2022-07-29T04:30:39;6.87;;;3.33;;
2698;SDS011;1359;51.798;12.174;2022-07-29T04:33:05;4.77;;;3.57;;
2698;SDS011;1359;51.798;12.174;2022-07-29T04:35:30;6.33;;;5.37;;
2698;SDS011;1359;51.798;12.174;2022-07-29T04:37:56;7.50;;;3.43;;
2698;SDS011;1359;51.798;12.174;2022-07-29T04:40:21;4.63;;;3.20;;
2698;SDS011;1359;51.798;12.174;2022-07-29T04:42:46;5.27;;;4.07;;
2698;SDS011;1359;51.798;12.174;2022-07-29T04:45:11;5.90;;;4.20;;
2698;SDS011;1359;51.798;12.174;2022-07-29T04:47:37;6.33;;;3.50;;
2698;SDS011;1359;51.798;12.174;2022-07-29T04:50:02;5.50;;;4.30;;
2698;SDS011;1359;51.798;12.174;2022-07-29T04:52:27;4.17;;;3.80;;
2698;SDS011;1359;51.798;12.174;2022-07-29T04:54:52;6.67;;;4.57;;
2698;SDS011;1359;51.798;12.174;2022-07-29T04:57:17;4.45;;;3.50;;
2698;SDS011;1359;51.798;12.174;2022-07-29T04:59:42;3.83;;;3.47;;
2698;SDS011;1359;51.798;12.174;2022-07-29T05:02:08;5.37;;;4.23;;
2698;SDS011;1359;51.798;12.174;2022-07-29T05:04:33;7.03;;;4.47;;
2698;SDS011;1359;51.798;12.174;2022-07-29T05:06:58;13.70;;;4.13;;
2698;SDS011;1359;51.798;12.174;2022-07-29T05:09:24;4.95;;;4.10;;
2698;SDS011;1359;51.798;12.174;2022-07-29T05:11:49;8.70;;;4.00;;
2698;SDS011;1359;51.798;12.174;2022-07-29T05:14:14;4.22;;;3.83;;
2698;SDS011;1359;51.798;12.174;2022-07-29T05:16:39;5.63;;;4.30;;
2698;SDS011;1359;51.798;12.174;2022-07-29T05:19:05;3.90;;;3.60;;
2698;SDS011;1359;51.798;12.174;2022-07-29T05:21:30;6.20;;;5.70;;
2698;SDS011;1359;51.798;12.174;2022-07-29T05:23:55;7.07;;;4.25;;
2698;SDS011;1359;51.798;12.174;2022-07-29T05:26:20;7.67;;;4.90;;
2698;SDS011;1359;51.798;12.174;2022-07-29T05:28:45;5.15;;;4.65;;
2698;SDS011;1359;51.798;12.174;2022-07-29T05:31:10;6.25;;;4.88;;
2698;SDS011;1359;51.798;12.174;2022-07-29T05:33:35;8.20;;;4.90;;
2698;SDS011;1359;51.798;12.174;2022-07-29T05:36:01;7.23;;;4.43;;
2698;SDS011;1359;51.798;12.174;2022-07-29T05:38:26;5.67;;;4.83;;
2698;SDS011;1359;51.798;12.174;2022-07-29T05:40:51;5.60;;;4.50;;
2698;SDS011;1359;51.798;12.174;2022-07-29T05:43:16;6.15;;;4.82;;
2698;SDS011;1359;51.798;12.174;2022-07-29T05:45:41;6.80;;;4.43;;
2698;SDS011;1359;51.798;12.174;2022-07-29T05:48:06;8.65;;;4.65;;
2698;SDS011;1359;51.798;12.174;2022-07-29T05:50:32;7.40;;;4.60;;
2698;SDS011;1359;51.798;12.174;2022-07-29T05:52:57;8.60;;;4.40;;
2698;SDS011;1359;51.798;12.174;2022-07-29T05:55:22;15.38;;;5.18;;
2698;SDS011;1359;51.798;12.174;2022-07-29T05:57:47;7.18;;;4.25;;
2698;SDS011;1359;51.798;12.174;2022-07-29T06:00:12;6.25;;;5.05;;
2698;SDS011;1359;51.798;12.174;2022-07-29T06:02:38;5.20;;;4.70;;
2698;SDS011;1359;51.798;12.174;2022-07-29T06:05:03;5.07;;;4.60;;
2698;SDS011;1359;51.798;12.174;2022-07-29T06:07:28;7.20;;;4.33;;
2698;SDS011;1359;51.798;12.174;2022-07-29T06:09:53;9.98;;;4.25;;
2698;SDS011;1359;51.798;12.174;2022-07-29T06:12:18;8.57;;;4.68;;
2698;SDS011;1359;51.798;12.174;2022-07-29T06:14:44;4.93;;;4.50;;
2698;SDS011;1359;51.798;12.174;2022-07-29T06:17:09;4.20;;;3.60;;
2698;SDS011;1359;51.798;12.174;2022-07-29T06:19:36;7.77;;;4.00;;
2698;SDS011;1359;51.798;12.174;2022-07-29T06:22:01;8.80;;;5.20;;
2698;SDS011;1359;51.798;12.174;2022-07-29T06:24:26;9.33;;;4.23;;
2698;SDS011;1359;51.798;12.174;2022-07-29T06:26:52;6.50;;;4.78;;
2698;SDS011;1359;51.798;12.174;2022-07-29T06:29:17;5.60;;;4.50;;
2698;SDS011;1359;51.798;12.174;2022-07-29T06:31:42;6.28;;;4.22;;
2698;SDS011;1359;51.798;12.174;2022-07-29T06:34:08;5.77;;;4.93;;
2698;SDS011;1359;51.798;12.174;2022-07-29T06:36:36;7.05;;;4.35;;
2698;SDS011;1359;51.798;12.174;2022-07-29T06:39:05;6.73;;;4.70;;
2698;SDS011;1359;51.798;12.174;2022-07-29T06:41:31;5.57;;;4.33;;
2698;SDS011;1359;51.798;12.174;2022-07-29T06:43:56;5.78;;;4.43;;
2698;SDS011;1359;51.798;12.174;2022-07-29T06:46:21;4.63;;;4.22;;
2698;SDS011;1359;51.798;12.174;2022-07-29T06:48:46;12.60;;;5.10;;
2698;SDS011;1359;51.798;12.174;2022-07-29T06:51:15;6.10;;;4.57;;
2698;SDS011;1359;51.798;12.174;2022-07-29T06:53:41;5.40;;;4.90;;
2698;SDS011;1359;51.798;12.174;2022-07-29T06:56:06;6.53;;;5.00;;
2698;SDS011;1359;51.798;12.174;2022-07-29T06:58:33;5.00;;;4.60;;
2698;SDS011;1359;51.798;12.174;2022-07-29T07:01:00;5.07;;;4.57;;
2698;SDS011;1359;51.798;12.174;2022-07-29T07:03:26;7.70;;;5.23;;
2698;SDS011;1359;51.798;12.174;2022-07-29T07:05:51;6.70;;;4.70;;
2698;SDS011;1359;51.798;12.174;2022-07-29T07:08:17;8.17;;;4.37;;
2698;SDS011;1359;51.798;12.174;2022-07-29T07:10:42;5.00;;;4.07;;
2698;SDS011;1359;51.798;12.174;2022-07-29T07:13:08;9.77;;;4.33;;
2698;SDS011;1359;51.798;12.174;2022-07-29T07:15:33;5.27;;;4.77;;
2698;SDS011;1359;51.798;12.174;2022-07-29T07:17:59;10.97;;;5.43;;
2698;SDS011;1359;51.798;12.174;2022-07-29T07:20:25;7.10;;;5.65;;
2698;SDS011;1359;51.798;12.174;2022-07-29T07:22:50;7.47;;;4.90;;
2698;SDS011;1359;51.798;12.174;2022-07-29T07:25:15;6.00;;;5.40;;
2698;SDS011;1359;51.798;12.174;2022-07-29T07:27:42;9.73;;;5.10;;
2698;SDS011;1359;51.798;12.174;2022-07-29T07:30:07;8.67;;;4.90;;
2698;SDS011;1359;51.798;12.174;2022-07-29T07:32:33;7.83;;;4.97;;
2698;SDS011;1359;51.798;12.174;2022-07-29T07:34:58;7.60;;;5.10;;
2698;SDS011;1359;51.798;12.174;2022-07-29T07:37:24;10.83;;;4.87;;
2698;SDS011;1359;51.798;12.174;2022-07-29T07:39:49;6.13;;;4.30;;
2698;SDS011;1359;51.798;12.174;2022-07-29T07:42:14;10.50;;;5.07;;
2698;SDS011;1359;51.798;12.174;2022-07-29T07:44:40;15.52;;;6.90;;
2698;SDS011;1359;51.798;12.174;2022-07-29T07:47:05;4.95;;;4.03;;
2698;SDS011;1359;51.798;12.174;2022-07-29T07:49:30;6.47;;;4.87;;
2698;SDS011;1359;51.798;12.174;2022-07-29T07:51:55;5.28;;;4.75;;
2698;SDS011;1359;51.798;12.174;2022-07-29T07:54:21;4.80;;;4.33;;
2698;SDS011;1359;51.798;12.174;2022-07-29T07:56:46;11.63;;;4.50;;
2698;SDS011;1359;51.798;12.174;2022-07-29T07:59:13;7.40;;;4.83;;
2698;SDS011;1359;51.798;12.174;2022-07-29T08:01:38;6.87;;;4.87;;
2698;SDS011;1359;51.798;12.174;2022-07-29T08:04:04;13.50;;;4.68;;
2698;SDS011;1359;51.798;12.174;2022-07-29T08:06:29;9.00;;;5.27;;
2698;SDS011;1359;51.798;12.174;2022-07-29T08:08:54;13.98;;;5.82;;
2698;SDS011;1359;51.798;12.174;2022-07-29T08:11:19;4.50;;;4.10;;
2698;SDS011;1359;51.798;12.174;2022-07-29T08:13:45;5.23;;;4.70;;
2698;SDS011;1359;51.798;12.174;2022-07-29T08:16:11;4.00;;;3.60;;
2698;SDS011;1359;51.798;12.174;2022-07-29T08:18:37;8.50;;;4.77;;
2698;SDS011;1359;51.798;12.174;2022-07-29T08:21:03;18.70;;;5.33;;
2698;SDS011;1359;51.798;12.174;2022-07-29T08:23:28;5.00;;;4.53;;
2698;SDS011;1359;51.798;12.174;2022-07-29T08:26:03;9.73;;;4.77;;
2698;SDS011;1359;51.798;12.174;2022-07-29T08:28:28;4.63;;;3.63;;
2698;SDS011;1359;51.798;12.174;2022-07-29T08:30:53;5.88;;;4.75;;
2698;SDS011;1359;51.798;12.174;2022-07-29T08:33:18;4.93;;;4.30;;
2698;SDS011;1359;51.798;12.174;2022-07-29T08:35:43;5.50;;;4.37;;
2698;SDS011;1359;51.798;12.174;2022-07-29T08:38:08;8.03;;;4.10;;
2698;SDS011;1359;51.798;12.174;2022-07-29T08:40:33;8.98;;;4.90;;
2698;SDS011;1359;51.798;12.174;2022-07-29T08:43:03;11.33;;;4.60;;
2698;SDS011;1359;51.798;12.174;2022-07-29T08:45:28;6.13;;;4.43;;
2698;SDS011;1359;51.798;12.174;2022-07-29T08:47:54;6.70;;;4.97;;
2698;SDS011;1359;51.798;12.174;2022-07-29T08:50:20;7.10;;;4.20;;
2698;SDS011;1359;51.798;12.174;2022-07-29T08:52:45;5.50;;;3.97;;
2698;SDS011;1359;51.798;12.174;2022-07-29T08:55:10;5.33;;;4.47;;
2698;SDS011;1359;51.798;12.174;2022-07-29T08:57:36;4.03;;;3.73;;
2698;SDS011;1359;51.798;12.174;2022-07-29T09:00:04;4.50;;;4.07;;
2698;SDS011;1359;51.798;12.174;2022-07-29T09:02:35;4.97;;;3.60;;
2698;SDS011;1359;51.798;12.174;2022-07-29T09:05:03;9.27;;;4.73;;
2698;SDS011;1359;51.798;12.174;2022-07-29T09:07:29;4.87;;;4.30;;
2698;SDS011;1359;51.798;12.174;2022-07-29T09:09:54;6.33;;;4.50;;
2698;SDS011;1359;51.798;12.174;2022-07-29T09:12:19;5.90;;;3.87;;
2698;SDS011;1359;51.798;12.174;2022-07-29T09:14:47;8.60;;;4.03;;
2698;SDS011;1359;51.798;12.174;2022-07-29T09:17:12;15.27;;;4.18;;
2698;SDS011;1359;51.798;12.174;2022-07-29T09:19:37;6.57;;;3.60;;
2698;SDS011;1359;51.798;12.174;2022-07-29T09:22:04;4.70;;;4.30;;
2698;SDS011;1359;51.798;12.174;2022-07-29T09:24:46;7.50;;;3.97;;
2698;SDS011;1359;51.798;12.174;2022-07-29T09:29:44;6.20;;;3.80;;
2698;SDS011;1359;51.798;12.174;2022-07-29T09:32:09;5.90;;;3.72;;
2698;SDS011;1359;51.798;12.174;2022-07-29T09:34:35;6.73;;;4.43;;
2698;SDS011;1359;51.798;12.174;2022-07-29T09:37:00;9.77;;;4.45;;
2698;SDS011;1359;51.798;12.174;2022-07-29T09:39:30;8.27;;;4.70;;
2698;SDS011;1359;51.798;12.174;2022-07-29T09:41:56;6.80;;;4.27;;
2698;SDS011;1359;51.798;12.174;2022-07-29T09:44:22;4.90;;;4.17;;
2698;SDS011;1359;51.798;12.174;2022-07-29T09:47:03;3.83;;;3.53;;
2698;SDS011;1359;51.798;12.174;2022-07-29T09:49:32;4.57;;;3.70;;
2698;SDS011;1359;51.798;12.174;2022-07-29T09:52:03;6.57;;;3.93;;
2698;SDS011;1359;51.798;12.174;2022-07-29T09:54:28;8.23;;;4.27;;
2698;SDS011;1359;51.798;12.174;2022-07-29T09:56:54;4.70;;;3.90;;
2698;SDS011;1359;51.798;12.174;2022-07-29T09:59:20;3.90;;;3.60;;
2698;SDS011;1359;51.798;12.174;2022-07-29T10:01:47;4.00;;;3.60;;
2698;SDS011;1359;51.798;12.174;2022-07-29T10:04:13;5.73;;;4.30;;
2698;SDS011;1359;51.798;12.174;2022-07-29T10:06:57;6.37;;;4.20;;
2698;SDS011;1359;51.798;12.174;2022-07-29T10:09:23;8.30;;;4.50;;
2698;SDS011;1359;51.798;12.174;2022-07-29T10:14:32;10.40;;;4.40;;
2698;SDS011;1359;51.798;12.174;2022-07-29T10:16:59;7.10;;;3.33;;
2698;SDS011;1359;51.798;12.174;2022-07-29T10:19:25;4.70;;;3.50;;
2698;SDS011;1359;51.798;12.174;2022-07-29T10:21:50;4.33;;;3.93;;
2698;SDS011;1359;51.798;12.174;2022-07-29T10:24:15;4.80;;;4.27;;
2698;SDS011;1359;51.798;12.174;2022-07-29T10:26:41;7.87;;;4.30;;
2698;SDS011;1359;51.798;12.174;2022-07-29T10:29:06;4.20;;;3.77;;
2698;SDS011;1359;51.798;12.174;2022-07-29T10:31:38;4.10;;;3.70;;
2698;SDS011;1359;51.798;12.174;2022-07-29T10:34:13;4.60;;;3.90;;
2698;SDS011;1359;51.798;12.174;2022-07-29T10:41:50;4.35;;;3.97;;
2698;SDS011;1359;51.798;12.174;2022-07-29T10:44:18;4.70;;;4.10;;
2698;SDS011;1359;51.798;12.174;2022-07-29T10:46:43;5.53;;;4.63;;
2698;SDS011;1359;51.798;12.174;2022-07-29T10:49:09;7.97;;;4.70;;
2698;SDS011;1359;51.798;12.174;2022-07-29T10:54:16;5.83;;;4.43;;
2698;SDS011;1359;51.798;12.174;2022-07-29T10:56:41;6.40;;;4.70;;
2698;SDS011;1359;51.798;12.174;2022-07-29T11:01:54;4.20;;;3.80;;
2698;SDS011;1359;51.798;12.174;2022-07-29T11:04:58;6.67;;;4.33;;
2698;SDS011;1359;51.798;12.174;2022-07-29T11:07:07;4.13;;;3.73;;
2698;SDS011;1359;51.798;12.174;2022-07-29T11:09:33;7.80;;;3.90;;
2698;SDS011;1359;51.798;12.174;2022-07-29T11:11:58;6.27;;;4.83;;
2698;SDS011;1359;51.798;12.174;2022-07-29T11:17:07;5.40;;;4.87;;
2698;SDS011;1359;51.798;12.174;2022-07-29T11:19:32;5.10;;;4.03;;
2698;SDS011;1359;51.798;12.174;2022-07-29T11:21:58;4.50;;;4.10;;
2698;SDS011;1359;51.798;12.174;2022-07-29T11:24:28;4.37;;;3.97;;
2698;SDS011;1359;51.798;12.174;2022-07-29T11:27:09;5.10;;;4.30;;
2698;SDS011;1359;51.798;12.174;2022-07-29T11:29:47;5.40;;;4.90;;
2698;SDS011;1359;51.798;12.174;2022-07-29T11:32:14;5.27;;;3.90;;
2698;SDS011;1359;51.798;12.174;2022-07-29T11:34:41;5.20;;;4.70;;
2698;SDS011;1359;51.798;12.174;2022-07-29T11:39:35;4.63;;;4.23;;
2698;SDS011;1359;51.798;12.174;2022-07-29T11:44:53;6.50;;;4.43;;
2698;SDS011;1359;51.798;12.174;2022-07-29T11:47:22;6.53;;;4.47;;
2698;SDS011;1359;51.798;12.174;2022-07-29T11:49:47;10.40;;;4.30;;
2698;SDS011;1359;51.798;12.174;2022-07-29T11:52:13;11.50;;;4.47;;
2698;SDS011;1359;51.798;12.174;2022-07-29T11:54:38;7.80;;;4.47;;
2698;SDS011;1359;51.798;12.174;2022-07-29T11:57:06;7.53;;;4.70;;
2698;SDS011;1359;51.798;12.174;2022-07-29T11:59:31;5.33;;;4.63;;
2698;SDS011;1359;51.798;12.174;2022-07-29T12:02:03;9.97;;;4.30;;
2698;SDS011;1359;51.798;12.174;2022-07-29T12:04:28;8.90;;;5.60;;
2698;SDS011;1359;51.798;12.174;2022-07-29T12:06:53;5.45;;;3.78;;
2698;SDS011;1359;51.798;12.174;2022-07-29T12:09:19;5.90;;;4.83;;
2698;SDS011;1359;51.798;12.174;2022-07-29T12:11:44;6.43;;;4.90;;
2698;SDS011;1359;51.798;12.174;2022-07-29T12:14:23;6.53;;;3.90;;
2698;SDS011;1359;51.798;12.174;2022-07-29T12:16:49;5.40;;;4.90;;
2698;SDS011;1359;51.798;12.174;2022-07-29T12:19:14;6.53;;;4.72;;
2698;SDS011;1359;51.798;12.174;2022-07-29T12:21:49;4.72;;;4.28;;
2698;SDS011;1359;51.798;12.174;2022-07-29T12:24:14;4.30;;;3.97;;
2698;SDS011;1359;51.798;12.174;2022-07-29T12:29:15;10.63;;;4.70;;
2698;SDS011;1359;51.798;12.174;2022-07-29T12:31:40;6.43;;;5.73;;
2698;SDS011;1359;51.798;12.174;2022-07-29T12:34:05;6.13;;;4.00;;
2698;SDS011;1359;51.798;12.174;2022-07-29T12:36:30;10.43;;;4.80;;
2698;SDS011;1359;51.798;12.174;2022-07-29T12:38:56;5.43;;;4.17;;
2698;SDS011;1359;51.798;12.174;2022-07-29T12:41:21;4.47;;;4.07;;
2698;SDS011;1359;51.798;12.174;2022-07-29T12:43:53;4.03;;;3.73;;
2698;SDS011;1359;51.798;12.174;2022-07-29T12:46:18;4.47;;;4.07;;
2698;SDS011;1359;51.798;12.174;2022-07-29T12:48:43;4.05;;;3.75;;
2698;SDS011;1359;51.798;12.174;2022-07-29T12:51:09;6.60;;;4.47;;
2698;SDS011;1359;51.798;12.174;2022-07-29T12:53:36;5.37;;;4.30;;
2698;SDS011;1359;51.798;12.174;2022-07-29T12:56:02;5.80;;;4.00;;
2698;SDS011;1359;51.798;12.174;2022-07-29T12:58:28;4.80;;;3.70;;
2698;SDS011;1359;51.798;12.174;2022-07-29T13:01:14;6.10;;;4.63;;
2698;SDS011;1359;51.798;12.174;2022-07-29T13:03:44;3.67;;;3.43;;
2698;SDS011;1359;51.798;12.174;2022-07-29T13:11:45;5.60;;;4.30;;
2698;SDS011;1359;51.798;12.174;2022-07-29T13:14:11;4.30;;;3.90;;
2698;SDS011;1359;51.798;12.174;2022-07-29T13:16:37;7.70;;;4.80;;
2698;SDS011;1359;51.798;12.174;2022-07-29T13:19:31;4.60;;;4.30;;
2698;SDS011;1359;51.798;12.174;2022-07-29T13:21:57;4.20;;;3.87;;
2698;SDS011;1359;51.798;12.174;2022-07-29T13:24:22;7.05;;;4.13;;
2698;SDS011;1359;51.798;12.174;2022-07-29T13:26:47;4.47;;;4.05;;
2698;SDS011;1359;51.798;12.174;2022-07-29T13:29:12;5.25;;;3.90;;
2698;SDS011;1359;51.798;12.174;2022-07-29T13:31:37;4.40;;;4.00;;
2698;SDS011;1359;51.798;12.174;2022-07-29T13:34:03;5.80;;;4.17;;
2698;SDS011;1359;51.798;12.174;2022-07-29T13:36:28;6.30;;;4.27;;
2698;SDS011;1359;51.798;12.174;2022-07-29T13:38:54;6.05;;;3.90;;
2698;SDS011;1359;51.798;12.174;2022-07-29T13:41:19;9.23;;;4.70;;
2698;SDS011;1359;51.798;12.174;2022-07-29T13:43:44;4.20;;;3.65;;
2698;SDS011;1359;51.798;12.174;2022-07-29T13:46:09;5.93;;;3.83;;
2698;SDS011;1359;51.798;12.174;2022-07-29T13:48:34;3.53;;;3.22;;
2698;SDS011;1359;51.798;12.174;2022-07-29T13:50:59;4.05;;;3.17;;
2698;SDS011;1359;51.798;12.174;2022-07-29T13:53:24;7.60;;;4.57;;
2698;SDS011;1359;51.798;12.174;2022-07-29T13:55:50;5.82;;;4.78;;
2698;SDS011;1359;51.798;12.174;2022-07-29T13:58:16;4.97;;;4.57;;
2698;SDS011;1359;51.798;12.174;2022-07-29T14:00:41;4.68;;;4.10;;
2698;SDS011;1359;51.798;12.174;2022-07-29T14:03:06;6.90;;;4.37;;
2698;SDS011;1359;51.798;12.174;2022-07-29T14:05:31;5.45;;;4.00;;
2698;SDS011;1359;51.798;12.174;2022-07-29T14:07:56;5.22;;;4.20;;
2698;SDS011;1359;51.798;12.174;2022-07-29T14:10:21;4.32;;;3.92;;
2698;SDS011;1359;51.798;12.174;2022-07-29T14:12:47;8.20;;;3.80;;
2698;SDS011;1359;51.798;12.174;2022-07-29T14:15:12;6.32;;;3.60;;
2698;SDS011;1359;51.798;12.174;2022-07-29T14:17:37;7.65;;;4.50;;
2698;SDS011;1359;51.798;12.174;2022-07-29T14:20:02;10.25;;;4.70;;
2698;SDS011;1359;51.798;12.174;2022-07-29T14:22:28;7.30;;;4.00;;
2698;SDS011;1359;51.798;12.174;2022-07-29T14:24:54;4.40;;;4.00;;
2698;SDS011;1359;51.798;12.174;2022-07-29T14:27:19;4.45;;;4.05;;
2698;SDS011;1359;51.798;12.174;2022-07-29T14:29:44;4.75;;;4.30;;
2698;SDS011;1359;51.798;12.174;2022-07-29T14:32:09;4.25;;;3.85;;
2698;SDS011;1359;51.798;12.174;2022-07-29T14:34:35;4.53;;;3.47;;
2698;SDS011;1359;51.798;12.174;2022-07-29T14:37:00;6.47;;;4.40;;
2698;SDS011;1359;51.798;12.174;2022-07-29T14:39:25;4.33;;;3.90;;
2698;SDS011;1359;51.798;12.174;2022-07-29T14:41:51;3.55;;;3.25;;
2698;SDS011;1359;51.798;12.174;2022-07-29T14:44:16;5.07;;;4.18;;
2698;SDS011;1359;51.798;12.174;2022-07-29T14:46:41;3.63;;;3.33;;
2698;SDS011;1359;51.798;12.174;2022-07-29T14:49:06;4.55;;;4.20;;
2698;SDS011;1359;51.798;12.174;2022-07-29T14:51:32;11.98;;;4.25;;
2698;SDS011;1359;51.798;12.174;2022-07-29T14:53:57;4.27;;;3.87;;
2698;SDS011;1359;51.798;12.174;2022-07-29T14:56:22;5.77;;;4.33;;
2698;SDS011;1359;51.798;12.174;2022-07-29T14:58:48;5.50;;;4.43;;
2698;SDS011;1359;51.798;12.174;2022-07-29T15:01:13;4.40;;;3.87;;
2698;SDS011;1359;51.798;12.174;2022-07-29T15:03:39;4.23;;;3.83;;
2698;SDS011;1359;51.798;12.174;2022-07-29T15:06:04;6.10;;;4.05;;
2698;SDS011;1359;51.798;12.174;2022-07-29T15:08:29;7.07;;;3.60;;
2698;SDS011;1359;51.798;12.174;2022-07-29T15:10:55;6.73;;;4.03;;
2698;SDS011;1359;51.798;12.174;2022-07-29T15:13:22;11.30;;;4.10;;
2698;SDS011;1359;51.798;12.174;2022-07-29T15:15:47;5.53;;;4.38;;
2698;SDS011;1359;51.798;12.174;2022-07-29T15:18:12;4.80;;;4.30;;
2698;SDS011;1359;51.798;12.174;2022-07-29T15:20:37;5.78;;;3.97;;
2698;SDS011;1359;51.798;12.174;2022-07-29T15:23:02;4.30;;;4.00;;
2698;SDS011;1359;51.798;12.174;2022-07-29T15:25:28;4.40;;;4.00;;
2698;SDS011;1359;51.798;12.174;2022-07-29T15:27:53;3.20;;;2.90;;
2698;SDS011;1359;51.798;12.174;2022-07-29T15:30:18;3.93;;;3.50;;
2698;SDS011;1359;51.798;12.174;2022-07-29T15:32:43;4.63;;;3.78;;
2698;SDS011;1359;51.798;12.174;2022-07-29T15:35:09;8.97;;;3.90;;